長崎空港の過去48時間の天気

長崎空港 (Nagasaki)

現在時刻: 5/28 13:03 JST (5/28 04:03 UTC) 以下の時間は現地時間です。

過去48時間のMETAR気象情報
時間 風向 風速(m/s) 視程 気温(℃) 湿度(%) 気圧(hPa) 天気現象
28 12:00 北北西 5 10km以上 24 50 1010
28 11:00 北北西 4 10km以上 23 53 1010
28 10:00 北北西 2 10km以上 22 50 1010
28 09:00 不定 2 10km以上 20 64 1010
28 08:00 不定 1 10km以上 19 78 1010
28 07:00 不定 1 10km以上 19 78 1009
27 21:00 西北西 4 10km以上 19 83 1008
27 20:00 西北西 4 10km以上 20 78 1007
27 19:00 西北西 4 10km以上 21 73 1007
27 18:00 北西 5 10km以上 22 69 1006
27 17:00 北北西 6 10km以上 22 73 1006
27 16:00 北北西 8 10km以上 23 69 1006
27 15:00 北北西 5 10km以上 24 65 1006
27 14:00 西 2 10km以上 24 61 1007
27 13:00 西 2 10km以上 24 65 1007
27 12:00 西 4 10km以上 24 61 1008
27 11:00 西 4 10km以上 22 65 1008
27 10:00 北北西 3 10km以上 22 69 1008
27 09:00 2 10km以上 20 73 1009
27 08:00 不定 1 10km以上 19 78 1008
27 07:00 南東 2 10km以上 18 88 1008
RJFU 280300Z 34010KT 9999 FEW030 24/13 Q1010
RJFU 280200Z 34007KT 9999 FEW030 23/13 Q1010
RJFU 280100Z 34004KT 300V020 9999 FEW030 SCT/// 22/11 Q1010
RJFU 280000Z VRB03KT CAVOK 20/13 Q1010
RJFU 272300Z VRB01KT CAVOK 19/15 Q1010
RJFU 272200Z VRB01KT CAVOK 19/15 Q1009
RJFU 271200Z 30007KT CAVOK 19/16 Q1008
RJFU 271100Z 30007KT CAVOK 20/16 Q1007
RJFU 271000Z 30008KT CAVOK 21/16 Q1007
RJFU 270900Z 31009KT CAVOK 22/16 Q1006
RJFU 270800Z 33012KT 9999 FEW040 BKN/// 22/17 Q1006
RJFU 270700Z 34015KT 9999 FEW030 BKN/// 23/17 Q1006
RJFU 270600Z 34010KT 9999 FEW030 BKN/// 24/17 Q1006
RJFU 270500Z 26004KT 200V310 9999 FEW030 BKN/// 24/16 Q1007
RJFU 270400Z 28004KT 240V310 9999 FEW030 BKN/// 24/17 Q1007
RJFU 270300Z 26007KT 230V300 9999 FEW030 BKN/// 24/16 Q1008
RJFU 270200Z 28007KT 250V310 9999 FEW030 BKN/// 22/15 Q1008
RJFU 270100Z 33006KT 300V030 9999 FEW025 BKN/// 22/16 Q1008
RJFU 270000Z 35004KT 300V050 9999 SCT020 BKN/// 20/15 Q1009
RJFU 262300Z VRB01KT 9999 FEW020 SCT030 BKN/// 19/15 Q1008
RJFU 262200Z 13003KT 9999 FEW020 BKN/// 18/16 Q1008